Time;durP1;ratioP1;P1;durP2;ratioP2;P2;SDS_P1;SDS_P2;PMS_P1;PMS_P2;Temp;Humidity;BMP_temperature;BMP_pressure;BME280_temperature;BME280_humidity;BME280_pressure;Samples;Min_cycle;Max_cycle;Signal;HPM_P1;HPM_P2
2022/03/21 00:01:07;;;;;;;10.43;6.43;;;9.50;99.90;;;;;;5069822;28;20517;-72
2022/03/21 00:03:34;;;;;;;7.53;6.73;;;9.50;99.90;;;;;;5067632;28;20996;-72
2022/03/21 00:06:03;;;;;;;9.13;6.80;;;9.40;99.90;;;;;;5067229;28;20945;-73
2022/03/21 00:08:30;;;;;;;11.13;7.33;;;9.30;99.90;;;;;;5068654;28;20562;-72
2022/03/21 00:10:57;;;;;;;8.47;6.30;;;9.30;99.90;;;;;;5068669;28;20504;-72
2022/03/21 00:13:25;;;;;;;6.57;5.63;;;9.30;99.90;;;;;;5068543;28;20508;-72
2022/03/21 00:15:53;;;;;;;6.77;4.73;;;9.20;99.90;;;;;;5069056;28;20443;-74
2022/03/21 00:18:20;;;;;;;5.80;5.23;;;9.30;99.90;;;;;;5068359;28;20996;-73
2022/03/21 00:20:49;;;;;;;9.67;5.43;;;9.30;99.90;;;;;;5065342;28;20453;-72
2022/03/21 00:23:18;;;;;;;4.87;4.37;;;9.30;99.90;;;;;;5068655;28;20447;-74
2022/03/21 00:25:45;;;;;;;8.57;5.40;;;9.40;99.90;;;;;;5068822;28;20535;-72
2022/03/21 00:28:12;;;;;;;6.83;4.80;;;9.30;99.90;;;;;;5068785;28;20536;-72
2022/03/21 00:30:42;;;;;;;6.87;6.17;;;9.30;99.90;;;;;;5067085;28;20447;-71
2022/03/21 00:33:09;;;;;;;8.10;6.50;;;9.30;99.90;;;;;;5066504;28;20447;-72
2022/03/21 00:35:36;;;;;;;7.80;6.27;;;9.20;99.90;;;;;;5068746;28;20985;-73
2022/03/21 00:38:04;;;;;;;9.47;6.30;;;9.10;99.90;;;;;;5080839;28;20471;-73
2022/03/21 00:40:32;;;;;;;8.73;6.33;;;9.00;99.90;;;;;;5068697;28;20458;-72
2022/03/21 00:42:59;;;;;;;7.43;6.60;;;8.90;99.90;;;;;;5068527;28;20986;-72
2022/03/21 00:45:28;;;;;;;6.70;6.00;;;8.70;99.90;;;;;;5068818;28;20447;-72
2022/03/21 00:47:55;;;;;;;11.30;6.47;;;8.60;99.90;;;;;;5079649;28;20231;-73
2022/03/21 00:50:24;;;;;;;10.27;6.88;;;8.60;99.90;;;;;;5068668;28;20266;-72
2022/03/21 00:52:53;;;;;;;7.70;6.22;;;8.50;99.90;;;;;;5068354;28;20212;-72
2022/03/21 00:55:21;;;;;;;10.77;7.07;;;8.40;99.90;;;;;;5066185;28;21819;-72
2022/03/21 00:57:49;;;;;;;10.40;6.40;;;8.40;99.90;;;;;;5071220;28;20470;-72
2022/03/21 01:00:18;;;;;;;8.48;7.28;;;8.30;99.90;;;;;;5076927;28;20209;-72
2022/03/21 01:02:45;;;;;;;9.85;6.40;;;8.30;99.90;;;;;;5068566;28;20213;-72
2022/03/21 01:05:13;;;;;;;11.23;8.20;;;8.30;99.90;;;;;;5068328;28;20192;-72
2022/03/21 01:07:41;;;;;;;12.85;7.90;;;8.30;99.90;;;;;;5072980;28;20231;-72
2022/03/21 01:10:11;;;;;;;8.80;7.13;;;8.30;99.90;;;;;;5066555;28;20201;-72
2022/03/21 01:12:38;;;;;;;8.82;4.93;;;8.30;99.90;;;;;;5079247;28;20253;-71
2022/03/21 01:15:08;;;;;;;8.52;6.78;;;8.30;99.90;;;;;;5084028;28;20234;-72
2022/03/21 01:17:35;;;;;;;9.45;6.50;;;8.30;99.90;;;;;;5069827;28;20233;-72
2022/03/21 01:20:02;;;;;;;11.10;7.30;;;8.30;99.90;;;;;;5073412;28;20215;-72
2022/03/21 01:22:29;;;;;;;9.57;6.50;;;8.30;99.90;;;;;;5078397;28;20463;-72
2022/03/21 01:24:55;;;;;;;12.15;6.93;;;8.30;99.90;;;;;;5068682;28;20797;-72
2022/03/21 01:27:22;;;;;;;9.85;7.35;;;8.30;99.90;;;;;;5067754;28;20251;-73
2022/03/21 01:29:49;;;;;;;7.07;6.28;;;8.30;99.90;;;;;;5067945;28;20240;-71
2022/03/21 01:32:17;;;;;;;7.45;6.13;;;8.40;99.90;;;;;;5067284;28;20200;-71
2022/03/21 01:34:44;;;;;;;11.68;6.15;;;8.40;99.90;;;;;;5067604;28;20628;-71
2022/03/21 01:37:11;;;;;;;12.32;6.80;;;8.40;99.90;;;;;;5069082;28;20667;-72
2022/03/21 01:39:38;;;;;;;9.68;6.00;;;8.40;99.90;;;;;;5067705;28;20200;-72
2022/03/21 01:42:05;;;;;;;6.63;6.03;;;8.40;99.90;;;;;;5067500;28;20201;-73
2022/03/21 01:44:32;;;;;;;7.00;6.03;;;8.50;99.90;;;;;;5067359;28;20205;-72
2022/03/21 01:46:58;;;;;;;8.00;6.70;;;8.50;99.90;;;;;;5068289;28;20474;-73
2022/03/21 01:49:26;;;;;;;6.60;5.90;;;8.60;99.90;;;;;;5085968;28;20454;-71
2022/03/21 01:51:54;;;;;;;7.43;6.47;;;8.60;99.90;;;;;;5065811;28;20998;-72
2022/03/21 01:57:06;;;;;;;11.35;7.75;;;8.70;99.90;;;;;;5065760;28;20450;-73
2022/03/21 01:59:34;;;;;;;7.83;6.13;;;8.70;99.90;;;;;;5066319;28;20209;-73
2022/03/21 02:02:01;;;;;;;10.50;8.30;;;8.80;99.90;;;;;;5083168;28;20442;-73
2022/03/21 02:04:29;;;;;;;12.83;8.47;;;8.70;99.90;;;;;;5078266;28;20200;-71
2022/03/21 02:06:55;;;;;;;10.03;7.90;;;8.80;99.90;;;;;;5066336;28;20492;-72
2022/03/21 02:09:22;;;;;;;9.23;7.38;;;8.80;99.90;;;;;;5068125;28;20455;-71
2022/03/21 02:11:49;;;;;;;8.75;6.97;;;8.70;99.90;;;;;;5070107;28;20205;-71
2022/03/21 02:14:15;;;;;;;14.17;7.50;;;8.70;99.90;;;;;;5060452;28;20205;-71
2022/03/21 02:16:42;;;;;;;9.97;7.40;;;8.70;99.90;;;;;;5071814;28;20520;-72
2022/03/21 02:19:20;;;;;;;8.55;7.57;;;8.70;99.90;;;;;;5076113;28;20512;-71
2022/03/21 02:22:07;;;;;;;10.47;7.20;;;8.70;99.90;;;;;;5070340;28;20204;-71
2022/03/21 02:24:40;;;;;;;10.27;6.78;;;8.60;99.90;;;;;;5070492;28;20459;-71
2022/03/21 02:27:09;;;;;;;7.23;6.57;;;8.60;99.90;;;;;;5075727;28;20201;-73
2022/03/21 02:29:38;;;;;;;7.47;6.78;;;8.50;99.90;;;;;;5058011;28;20554;-73
2022/03/21 02:32:06;;;;;;;9.60;7.53;;;8.40;99.90;;;;;;5070404;28;20679;-73
2022/03/21 02:34:37;;;;;;;10.13;7.55;;;8.40;99.90;;;;;;5069648;28;20221;-72
2022/03/21 02:37:05;;;;;;;7.72;5.97;;;8.30;99.90;;;;;;5065274;28;20759;-72
2022/03/21 02:39:33;;;;;;;15.73;7.25;;;8.20;99.90;;;;;;5063260;28;20678;-72
2022/03/21 02:42:00;;;;;;;9.30;7.43;;;8.20;99.90;;;;;;5071067;28;20267;-72
2022/03/21 02:44:33;;;;;;;7.65;6.85;;;8.20;99.90;;;;;;5070328;28;20201;-72
2022/03/21 02:47:00;;;;;;;7.90;7.13;;;8.10;99.90;;;;;;5069915;28;20212;-72
2022/03/21 02:49:27;;;;;;;10.40;7.47;;;8.00;99.90;;;;;;5070990;28;20259;-72
2022/03/21 02:51:54;;;;;;;10.13;6.85;;;7.90;99.90;;;;;;5069584;28;20205;-72
2022/03/21 02:54:22;;;;;;;7.72;6.93;;;7.80;99.90;;;;;;5070314;28;20205;-72
2022/03/21 02:56:49;;;;;;;8.52;7.68;;;7.70;99.90;;;;;;5073136;28;20689;-74
2022/03/21 02:59:16;;;;;;;8.27;7.20;;;7.60;99.90;;;;;;5079961;28;20648;-73
2022/03/21 03:01:44;;;;;;;6.85;6.15;;;7.60;99.90;;;;;;5084420;28;20197;-74
2022/03/21 03:04:11;;;;;;;10.00;9.00;;;7.70;99.90;;;;;;5069432;28;20266;-72
2022/03/21 03:06:39;;;;;;;9.20;7.20;;;7.80;99.90;;;;;;5068779;28;20205;-73
2022/03/21 03:09:07;;;;;;;9.00;7.47;;;7.80;99.90;;;;;;5070099;28;20216;-72
2022/03/21 03:11:36;;;;;;;11.27;7.57;;;7.90;99.90;;;;;;5070108;28;20200;-73
2022/03/21 03:14:02;;;;;;;10.13;8.73;;;7.90;99.90;;;;;;5070338;28;20201;-73
2022/03/21 03:16:29;;;;;;;9.75;8.85;;;8.00;99.90;;;;;;5070288;28;20233;-73
2022/03/21 03:18:57;;;;;;;7.82;6.57;;;8.00;99.90;;;;;;5068060;28;20289;-72
2022/03/21 03:21:26;;;;;;;11.55;8.25;;;8.10;99.90;;;;;;5070479;28;20675;-73
2022/03/21 03:23:53;;;;;;;8.30;7.18;;;8.10;99.90;;;;;;5068557;28;20671;-73
2022/03/21 03:26:20;;;;;;;15.73;7.60;;;8.20;99.90;;;;;;5069594;28;20201;-75
2022/03/21 03:28:47;;;;;;;10.75;7.60;;;8.10;99.90;;;;;;5069120;28;20640;-72
2022/03/21 03:31:15;;;;;;;9.43;7.40;;;8.20;99.90;;;;;;5070804;28;20624;-71
2022/03/21 03:33:44;;;;;;;8.95;7.53;;;8.20;99.90;;;;;;5069937;28;20201;-72
2022/03/21 03:36:15;;;;;;;8.68;7.57;;;8.10;99.90;;;;;;5075825;28;20251;-73
2022/03/21 03:38:42;;;;;;;12.02;8.88;;;8.10;99.90;;;;;;5069398;28;20284;-73
2022/03/21 03:41:10;;;;;;;7.70;7.05;;;8.00;99.90;;;;;;5079205;28;20659;-72
2022/03/21 03:43:36;;;;;;;9.90;6.95;;;8.00;99.90;;;;;;5068746;28;20197;-72
2022/03/21 03:46:04;;;;;;;8.50;7.13;;;8.00;99.90;;;;;;5070087;28;20662;-72
2022/03/21 03:48:30;;;;;;;8.93;6.70;;;8.10;99.90;;;;;;5069078;28;20228;-73
2022/03/21 03:50:57;;;;;;;12.88;8.48;;;8.10;99.90;;;;;;5078311;28;20219;-72
2022/03/21 03:53:25;;;;;;;10.27;7.72;;;8.10;99.90;;;;;;5063011;28;20205;-72
2022/03/21 03:55:52;;;;;;;10.10;7.90;;;8.20;99.90;;;;;;5068714;28;20221;-73
2022/03/21 03:58:19;;;;;;;9.82;8.07;;;8.20;99.90;;;;;;5080935;28;20225;-73
2022/03/21 04:00:46;;;;;;;11.63;8.15;;;8.20;99.90;;;;;;5069935;28;20816;-72
2022/03/21 04:05:57;;;;;;;8.15;7.30;;;8.30;99.90;;;;;;5064285;28;20195;-73
2022/03/21 04:08:24;;;;;;;8.57;7.50;;;8.30;99.90;;;;;;5070459;28;20278;-73
2022/03/21 04:10:52;;;;;;;7.57;6.88;;;8.20;99.90;;;;;;5069020;28;20208;-73
2022/03/21 04:13:19;;;;;;;11.43;7.78;;;8.20;99.90;;;;;;5064018;28;20290;-73
2022/03/21 04:15:46;;;;;;;8.98;8.13;;;8.10;99.90;;;;;;5067332;28;20228;-73
2022/03/21 04:18:13;;;;;;;8.40;7.63;;;8.10;99.90;;;;;;5068899;28;20290;-72
2022/03/21 04:20:40;;;;;;;11.35;8.50;;;8.00;99.90;;;;;;5069546;28;20201;-74
2022/03/21 04:23:09;;;;;;;14.98;7.88;;;8.00;99.90;;;;;;5073908;28;20205;-73
2022/03/21 04:25:36;;;;;;;11.73;8.63;;;8.00;99.90;;;;;;5068531;28;20320;-74
2022/03/21 04:28:09;;;;;;;8.38;6.97;;;8.00;99.90;;;;;;5069251;28;20605;-72
2022/03/21 04:30:36;;;;;;;11.10;9.13;;;8.00;99.90;;;;;;5066138;28;20583;-72
2022/03/21 04:33:03;;;;;;;9.10;7.97;;;7.90;99.90;;;;;;5062706;28;20206;-72
2022/03/21 04:35:30;;;;;;;9.57;6.50;;;7.90;99.90;;;;;;5066716;28;20255;-72
2022/03/21 04:37:57;;;;;;;11.93;9.10;;;7.80;99.90;;;;;;5076196;28;20227;-72
2022/03/21 04:40:24;;;;;;;14.20;9.68;;;7.70;99.90;;;;;;5068705;28;20205;-73
2022/03/21 04:42:51;;;;;;;11.38;8.00;;;7.70;99.90;;;;;;5068769;28;20266;-74
2022/03/21 04:45:20;;;;;;;12.95;9.20;;;7.70;99.90;;;;;;5068237;28;21494;-73
2022/03/21 04:47:46;;;;;;;9.05;7.78;;;7.70;99.90;;;;;;5068693;28;20224;-74
2022/03/21 04:50:14;;;;;;;9.45;7.65;;;7.60;99.90;;;;;;5069395;28;20200;-72
2022/03/21 04:52:40;;;;;;;9.35;8.45;;;7.60;99.90;;;;;;5068266;28;20221;-71
2022/03/21 04:55:08;;;;;;;13.10;9.30;;;7.50;99.90;;;;;;5067103;28;20809;-71
2022/03/21 04:57:36;;;;;;;12.23;9.48;;;7.40;99.90;;;;;;5068518;28;20339;-71
2022/03/21 05:00:04;;;;;;;11.65;8.02;;;7.30;99.90;;;;;;5074592;28;20204;-71
2022/03/21 05:02:32;;;;;;;10.57;9.32;;;7.30;99.90;;;;;;5068527;28;20205;-71
2022/03/21 05:04:58;;;;;;;12.23;9.20;;;7.30;99.90;;;;;;5062610;28;20201;-73
2022/03/21 05:07:25;;;;;;;11.68;8.75;;;7.30;99.90;;;;;;5066660;28;22042;-72
2022/03/21 05:09:52;;;;;;;8.77;7.30;;;7.30;99.90;;;;;;5067502;28;20204;-72
2022/03/21 05:12:20;;;;;;;12.15;8.38;;;7.20;99.90;;;;;;5068868;28;20214;-73
2022/03/21 05:14:47;;;;;;;13.05;8.27;;;7.20;99.90;;;;;;5072786;28;20204;-72
2022/03/21 05:17:17;;;;;;;10.10;8.95;;;7.20;99.90;;;;;;5066742;28;20241;-71
2022/03/21 05:19:45;;;;;;;9.52;7.15;;;7.10;99.90;;;;;;5068516;28;20304;-72
2022/03/21 05:22:11;;;;;;;10.45;7.88;;;7.10;99.90;;;;;;5068137;28;20340;-72
2022/03/21 05:35:52;;;;;;;10.18;8.50;;;6.90;99.90;;;;;;5056944;28;20238;-72
2022/03/21 05:35:55;;;;;;;10.75;8.45;;;6.80;99.90;;;;;;5069582;28;20238;-72
2022/03/21 05:38:23;;;;;;;8.43;7.20;;;6.80;99.90;;;;;;5070246;28;20320;-72
2022/03/21 05:40:50;;;;;;;10.35;8.90;;;6.70;99.90;;;;;;5056573;28;20216;-72
2022/03/21 05:43:17;;;;;;;7.93;7.05;;;6.70;99.90;;;;;;5068578;28;20677;-73
2022/03/21 05:45:44;;;;;;;10.85;8.70;;;6.70;99.90;;;;;;5077983;28;20240;-70
2022/03/21 05:50:56;;;;;;;10.40;9.27;;;6.70;99.90;;;;;;5071949;28;20211;-71
2022/03/21 05:53:23;;;;;;;8.90;7.82;;;6.60;99.90;;;;;;5077161;28;20277;-71
2022/03/21 05:55:50;;;;;;;10.55;9.48;;;6.70;99.90;;;;;;5071916;28;20609;-72
2022/03/21 05:58:16;;;;;;;10.18;9.05;;;6.60;99.90;;;;;;5074290;28;20848;-71
2022/03/21 06:00:43;;;;;;;9.55;8.25;;;6.60;99.90;;;;;;5076521;28;20227;-73
2022/03/21 06:03:10;;;;;;;11.73;8.55;;;6.70;99.90;;;;;;5071136;28;20665;-71
2022/03/21 06:05:37;;;;;;;10.10;8.40;;;6.70;99.90;;;;;;5071901;28;20256;-72
2022/03/21 06:08:06;;;;;;;13.30;8.23;;;6.60;99.90;;;;;;5071676;28;20224;-70
2022/03/21 06:10:32;;;;;;;10.80;8.23;;;6.60;99.90;;;;;;5072603;28;20201;-71
2022/03/21 06:13:05;;;;;;;10.07;8.35;;;6.60;99.90;;;;;;5083639;28;20831;-71
2022/03/21 06:15:32;;;;;;;8.68;7.63;;;6.70;99.90;;;;;;5073518;28;20772;-71
2022/03/21 06:17:59;;;;;;;12.10;8.98;;;6.70;99.90;;;;;;5076863;28;20298;-72
2022/03/21 06:20:26;;;;;;;9.13;7.70;;;6.80;99.90;;;;;;5070336;28;20266;-72
2022/03/21 06:22:53;;;;;;;10.60;7.97;;;6.80;99.90;;;;;;5061059;28;20227;-72
2022/03/21 06:25:21;;;;;;;9.05;8.23;;;6.90;99.90;;;;;;5067364;28;20208;-73
2022/03/21 06:27:48;;;;;;;9.68;8.05;;;7.00;99.90;;;;;;5068013;28;20220;-71
2022/03/21 06:30:15;;;;;;;12.57;7.45;;;7.00;99.90;;;;;;5067028;28;20201;-72
2022/03/21 06:32:42;;;;;;;12.45;8.35;;;7.00;99.90;;;;;;5068147;28;20201;-71
2022/03/21 06:35:10;;;;;;;9.38;8.23;;;7.10;99.90;;;;;;5070188;28;20207;-72
2022/03/21 06:37:37;;;;;;;11.38;9.50;;;7.10;99.90;;;;;;5070081;28;20253;-71
2022/03/21 06:40:07;;;;;;;9.23;8.30;;;7.10;99.90;;;;;;5070539;28;20702;-71
2022/03/21 06:42:35;;;;;;;9.68;7.15;;;7.20;99.90;;;;;;5066276;28;20208;-73
2022/03/21 06:45:03;;;;;;;10.45;7.80;;;7.30;99.90;;;;;;5066114;28;20197;-71
2022/03/21 06:47:30;;;;;;;11.63;8.27;;;7.40;99.90;;;;;;5072801;28;20627;-71
2022/03/21 06:49:56;;;;;;;11.82;7.57;;;7.40;99.90;;;;;;5068362;28;20204;-72
2022/03/21 06:52:23;;;;;;;11.48;8.48;;;7.50;99.90;;;;;;5067742;28;20258;-72
2022/03/21 06:54:50;;;;;;;12.40;10.27;;;7.60;99.90;;;;;;5069443;28;20202;-72
2022/03/21 06:57:18;;;;;;;8.18;7.38;;;7.60;99.90;;;;;;5070656;28;20232;-71
2022/03/21 06:59:47;;;;;;;10.43;7.00;;;7.70;99.90;;;;;;5072982;28;20201;-71
2022/03/21 07:02:14;;;;;;;9.70;7.03;;;7.80;99.90;;;;;;5069719;28;20204;-71
2022/03/21 07:04:41;;;;;;;8.55;7.25;;;7.90;99.90;;;;;;5067561;28;20258;-71
2022/03/21 07:07:07;;;;;;;9.60;7.13;;;8.00;99.90;;;;;;5068227;28;20273;-71
2022/03/21 07:09:34;;;;;;;9.73;6.82;;;8.10;99.90;;;;;;5071405;28;20196;-71
2022/03/21 07:12:01;;;;;;;8.63;7.72;;;8.20;99.90;;;;;;5066758;28;20196;-71
2022/03/21 07:14:28;;;;;;;8.93;6.40;;;8.20;99.90;;;;;;5072001;28;20217;-71
2022/03/21 07:16:56;;;;;;;8.23;7.10;;;8.30;99.90;;;;;;5071451;28;20274;-71
2022/03/21 07:19:22;;;;;;;9.95;7.38;;;8.40;99.90;;;;;;5072862;28;20215;-71
2022/03/21 07:21:49;;;;;;;12.50;7.30;;;8.40;99.90;;;;;;5079047;28;20197;-72
2022/03/21 07:24:16;;;;;;;9.70;7.30;;;8.50;99.90;;;;;;5068065;28;20765;-72
2022/03/21 07:26:43;;;;;;;10.90;7.60;;;8.60;99.90;;;;;;5067124;28;20243;-72
2022/03/21 07:29:11;;;;;;;7.80;6.88;;;8.70;99.90;;;;;;5069813;28;20640;-73
2022/03/21 07:31:38;;;;;;;10.77;7.93;;;8.80;99.90;;;;;;5071094;28;20208;-73
2022/03/21 07:34:08;;;;;;;8.70;7.63;;;8.80;99.90;;;;;;5066759;28;20192;-74
2022/03/21 07:36:35;;;;;;;12.48;7.68;;;8.90;99.90;;;;;;5073678;28;20247;-72
2022/03/21 07:39:03;;;;;;;9.43;6.95;;;9.00;99.90;;;;;;5071014;28;20258;-75
2022/03/21 07:41:30;;;;;;;10.68;7.68;;;9.20;99.90;;;;;;5067853;28;20734;-74
2022/03/21 07:43:58;;;;;;;9.40;7.15;;;9.30;99.90;;;;;;5069449;28;20231;-72
2022/03/21 07:49:11;;;;;;;8.98;6.50;;;9.50;99.90;;;;;;5066856;28;20304;-70
2022/03/21 07:51:38;;;;;;;8.03;6.13;;;9.60;99.90;;;;;;5063245;28;20261;-72
2022/03/21 07:54:05;;;;;;;8.00;7.17;;;9.70;99.90;;;;;;5065772;28;20536;-70
2022/03/21 07:56:33;;;;;;;8.03;7.20;;;9.90;99.90;;;;;;5065286;28;20487;-71
2022/03/21 07:59:01;;;;;;;9.70;6.10;;;10.00;99.90;;;;;;5065520;28;20537;-71
2022/03/21 08:01:30;;;;;;;9.73;6.60;;;10.10;99.90;;;;;;5069132;28;20455;-70
2022/03/21 08:03:57;;;;;;;6.77;6.10;;;10.20;99.90;;;;;;5061618;28;20948;-73
2022/03/21 08:06:26;;;;;;;7.47;6.53;;;10.40;99.90;;;;;;5068880;28;20458;-71
2022/03/21 08:08:54;;;;;;;8.70;7.67;;;10.50;99.90;;;;;;5071154;28;20932;-71
2022/03/21 08:11:22;;;;;;;7.63;6.83;;;10.70;99.90;;;;;;5065103;28;20451;-70
2022/03/21 08:13:49;;;;;;;13.47;6.93;;;10.90;99.90;;;;;;5065383;28;21197;-70
2022/03/21 08:16:19;;;;;;;9.50;6.50;;;11.00;99.90;;;;;;5066247;28;21052;-72
2022/03/21 08:18:47;;;;;;;8.07;6.13;;;11.10;99.90;;;;;;5067732;28;20480;-71
2022/03/21 08:21:14;;;;;;;8.67;7.87;;;11.20;99.90;;;;;;5068351;28;20504;-70
2022/03/21 08:23:43;;;;;;;6.60;5.77;;;11.40;99.90;;;;;;5065516;28;20463;-72
2022/03/21 08:26:10;;;;;;;8.37;6.63;;;11.50;99.90;;;;;;5065200;28;20454;-71
2022/03/21 08:28:37;;;;;;;6.57;5.80;;;11.60;99.90;;;;;;5067347;28;20466;-71
2022/03/21 08:31:04;;;;;;;7.20;6.50;;;11.80;99.90;;;;;;5067301;28;20500;-70
2022/03/21 08:33:31;;;;;;;8.47;7.03;;;12.00;99.90;;;;;;5068291;28;20456;-72
2022/03/21 08:35:57;;;;;;;9.10;7.27;;;12.20;99.90;;;;;;5068045;28;20506;-70
2022/03/21 08:38:24;;;;;;;8.13;7.20;;;12.30;99.90;;;;;;5068727;28;20475;-72
2022/03/21 08:40:52;;;;;;;7.73;6.83;;;12.40;99.90;;;;;;5067976;28;20483;-70
2022/03/21 08:43:19;;;;;;;12.03;7.57;;;12.60;99.90;;;;;;5069816;28;20590;-72
2022/03/21 08:45:47;;;;;;;6.73;6.00;;;12.70;99.90;;;;;;5066462;28;20513;-70
2022/03/21 08:48:14;;;;;;;7.17;6.50;;;12.70;99.90;;;;;;5068946;28;20510;-69
2022/03/21 08:50:41;;;;;;;9.30;7.00;;;12.80;99.90;;;;;;5069100;28;20800;-71
2022/03/21 08:53:08;;;;;;;10.80;7.90;;;12.80;99.90;;;;;;5074164;28;20474;-70
2022/03/21 08:55:35;;;;;;;9.90;6.90;;;12.80;99.90;;;;;;5068046;28;20455;-70
2022/03/21 08:58:03;;;;;;;10.80;7.37;;;12.90;99.90;;;;;;5068184;28;20494;-70
2022/03/21 09:00:29;;;;;;;9.97;6.80;;;13.10;99.90;;;;;;5068751;28;21169;-70
2022/03/21 09:02:56;;;;;;;8.87;6.50;;;13.20;99.90;;;;;;5067288;28;20513;-72
2022/03/21 09:05:23;;;;;;;7.30;6.17;;;13.40;99.90;;;;;;5067791;28;20451;-70
2022/03/21 09:07:49;;;;;;;10.20;7.13;;;13.50;99.90;;;;;;5066739;28;20459;-70
2022/03/21 09:10:18;;;;;;;12.13;6.80;;;13.60;99.90;;;;;;5068569;28;21859;-70
2022/03/21 09:12:45;;;;;;;10.00;6.20;;;13.60;99.90;;;;;;5065535;28;20580;-70
2022/03/21 09:15:13;;;;;;;7.80;6.30;;;13.80;99.90;;;;;;5065665;28;20462;-71
2022/03/21 09:17:40;;;;;;;11.30;7.70;;;14.00;99.90;;;;;;5061351;28;20565;-71
2022/03/21 09:20:08;;;;;;;8.20;5.97;;;14.10;99.90;;;;;;5059019;28;20576;-70
2022/03/21 09:22:35;;;;;;;9.20;7.57;;;14.20;99.90;;;;;;5063516;28;20458;-70
2022/03/21 09:25:02;;;;;;;9.00;7.50;;;14.30;99.90;;;;;;5067532;28;20462;-70
2022/03/21 09:27:29;;;;;;;10.30;8.00;;;14.30;99.90;;;;;;5068507;28;20473;-70
2022/03/21 09:29:56;;;;;;;8.30;7.13;;;14.30;99.90;;;;;;5067330;28;20847;-70
2022/03/21 09:32:25;;;;;;;9.03;7.63;;;14.30;99.90;;;;;;5067685;28;20439;-70
2022/03/21 09:34:51;;;;;;;9.90;7.37;;;14.50;99.90;;;;;;5066711;28;20458;-70
2022/03/21 09:37:18;;;;;;;8.53;6.97;;;14.70;99.90;;;;;;5064027;28;20498;-70
2022/03/21 09:39:45;;;;;;;10.50;8.00;;;14.90;99.90;;;;;;5068160;28;20513;-70
2022/03/21 09:42:12;;;;;;;11.67;7.50;;;14.90;99.90;;;;;;5065743;28;20576;-69
2022/03/21 09:44:39;;;;;;;9.60;7.00;;;14.90;99.90;;;;;;5066497;28;20448;-70
2022/03/21 09:49:52;;;;;;;7.43;6.30;;;15.00;99.90;;;;;;5060331;28;20427;-69
2022/03/21 09:52:20;;;;;;;9.57;7.20;;;15.10;99.90;;;;;;5067379;28;20872;-70
2022/03/21 09:54:46;;;;;;;9.80;6.90;;;15.20;99.90;;;;;;5064224;28;20459;-70
2022/03/21 09:57:13;;;;;;;8.57;6.60;;;15.40;99.90;;;;;;5064486;28;20486;-70
2022/03/21 09:59:40;;;;;;;8.50;7.30;;;15.50;99.90;;;;;;5064740;28;20447;-70
2022/03/21 10:02:08;;;;;;;7.07;6.30;;;15.70;99.90;;;;;;5066497;28;20454;-70
2022/03/21 10:04:35;;;;;;;9.77;8.67;;;15.80;99.90;;;;;;5066322;28;20460;-70
2022/03/21 10:07:03;;;;;;;8.50;6.87;;;16.00;99.90;;;;;;5067816;28;20449;-72
2022/03/21 10:09:29;;;;;;;9.53;8.27;;;16.10;99.90;;;;;;5067517;28;21079;-70
2022/03/21 10:11:57;;;;;;;9.23;7.50;;;16.10;99.90;;;;;;5065717;28;20941;-69
2022/03/21 10:14:32;;;;;;;8.47;7.60;;;16.20;99.90;;;;;;5067121;28;20459;-70
2022/03/21 10:17:02;;;;;;;9.67;7.27;;;16.30;99.90;;;;;;5063753;28;20574;-69
2022/03/21 10:19:42;;;;;;;12.13;8.83;;;16.50;99.90;;;;;;5062950;28;20539;-71
2022/03/21 10:22:12;;;;;;;9.00;6.63;;;16.70;99.80;;;;;;5066744;28;20446;-69
2022/03/21 10:24:40;;;;;;;8.67;7.77;;;16.90;99.50;;;;;;5063353;28;20451;-69
2022/03/21 10:27:26;;;;;;;9.30;6.67;;;16.90;99.60;;;;;;5063387;28;20473;-69
2022/03/21 10:29:54;;;;;;;7.13;6.43;;;17.00;99.50;;;;;;5067816;28;20439;-70
2022/03/21 10:32:32;;;;;;;11.03;7.73;;;17.10;99.20;;;;;;5069290;28;20476;-69
2022/03/21 10:35:01;;;;;;;10.20;7.50;;;17.10;99.10;;;;;;5070520;28;20550;-69
2022/03/21 10:37:42;;;;;;;8.60;6.97;;;17.20;99.20;;;;;;5069592;28;20493;-69
2022/03/21 10:40:18;;;;;;;8.40;7.27;;;17.40;99.20;;;;;;5068097;28;20449;-70
2022/03/21 10:42:55;;;;;;;6.93;6.20;;;17.50;98.60;;;;;;5071273;28;20458;-75
2022/03/21 10:45:23;;;;;;;17.53;8.87;;;17.60;99.20;;;;;;5071210;28;20965;-74
2022/03/21 10:47:51;;;;;;;10.77;7.33;;;17.80;98.60;;;;;;5071104;28;20498;-73
2022/03/21 10:50:28;;;;;;;15.20;7.67;;;17.90;98.30;;;;;;5070433;28;20451;-73
2022/03/21 10:53:05;;;;;;;8.07;6.63;;;18.10;98.10;;;;;;5071367;28;20457;-74
2022/03/21 10:55:32;;;;;;;8.37;7.37;;;18.20;98.20;;;;;;5072140;28;20447;-74
2022/03/21 10:57:59;;;;;;;8.20;7.40;;;18.60;98.00;;;;;;5071214;28;20874;-74
2022/03/21 11:00:28;;;;;;;8.70;7.00;;;18.60;97.70;;;;;;5071179;28;20978;-74
2022/03/21 11:02:57;;;;;;;13.10;10.70;;;18.70;97.10;;;;;;5070874;28;20447;-74
2022/03/21 11:05:26;;;;;;;11.50;10.50;;;18.70;96.90;;;;;;5068829;28;20869;-75
2022/03/21 11:07:53;;;;;;;24.88;23.58;;;18.90;97.10;;;;;;5070144;28;20465;-74
2022/03/21 11:10:23;;;;;;;35.88;34.22;;;18.80;96.60;;;;;;5075451;28;20282;-74
2022/03/21 11:12:50;;;;;;;31.33;29.37;;;18.90;96.40;;;;;;5072979;28;20332;-73
2022/03/21 11:15:16;;;;;;;18.73;18.13;;;19.00;96.40;;;;;;5075739;28;20451;-73
2022/03/21 11:17:45;;;;;;;19.92;19.33;;;19.10;96.50;;;;;;5072755;28;20491;-74
2022/03/21 11:20:13;;;;;;;17.80;17.30;;;19.10;96.50;;;;;;5071173;28;20448;-73
2022/03/21 11:22:41;;;;;;;26.38;25.70;;;19.40;96.70;;;;;;5070721;28;21015;-75
2022/03/21 11:25:09;;;;;;;;;;;19.80;96.10;;;;;;5071645;28;20205;-74
2022/03/21 11:28:09;;;;;;;14.40;10.80;;;20.10;96.20;;;;;;5070264;28;20518;-76
2022/03/21 11:30:50;;;;;;;12.47;10.80;;;20.60;95.60;;;;;;5074829;28;20467;-75
2022/03/21 11:33:31;;;;;;;7.43;6.70;;;20.90;95.30;;;;;;5070630;28;20868;-73
2022/03/21 11:36:01;;;;;;;93.43;79.63;;;21.10;95.00;;;;;;5070704;28;20983;-74
2022/03/21 11:38:29;;;;;;;8.50;6.70;;;21.30;95.00;;;;;;5071680;28;20484;-73
2022/03/21 11:41:10;;;;;;;107.97;64.70;;;21.50;94.50;;;;;;5070310;28;20900;-72
2022/03/21 11:43:40;;;;;;;6.90;6.17;;;22.00;94.00;;;;;;5069406;28;20440;-73
2022/03/21 11:46:22;;;;;;;7.60;6.80;;;22.70;93.70;;;;;;5069587;28;20524;-73
2022/03/21 11:48:49;;;;;;;6.50;5.87;;;23.30;93.00;;;;;;5065539;28;20842;-73
2022/03/21 11:51:29;;;;;;;8.13;6.30;;;23.90;92.90;;;;;;5070175;28;20451;-74
2022/03/21 11:53:57;;;;;;;6.53;5.93;;;24.30;91.50;;;;;;5069757;28;20458;-73
2022/03/21 11:56:58;;;;;;;7.93;6.03;;;24.30;90.80;;;;;;5070242;28;20486;-75
2022/03/21 11:59:52;;;;;;;7.07;6.10;;;24.70;90.40;;;;;;5067800;28;20458;-73
2022/03/21 12:03:00;;;;;;;7.07;6.53;;;24.80;88.30;;;;;;5073758;28;20454;-73
2022/03/21 12:05:54;;;;;;;7.17;5.80;;;25.40;86.80;;;;;;5067795;28;21034;-75
2022/03/21 12:08:50;;;;;;;6.23;5.63;;;25.70;84.90;;;;;;5064806;28;20464;-74
2022/03/21 12:12:05;;;;;;;5.50;4.93;;;26.10;83.40;;;;;;5065939;28;20526;-74
2022/03/21 12:14:43;;;;;;;4.23;3.87;;;26.20;81.60;;;;;;5069451;28;20451;-74
2022/03/21 12:17:33;;;;;;;5.50;4.87;;;26.80;81.20;;;;;;5066298;28;20451;-74
2022/03/21 12:20:02;;;;;;;5.00;4.50;;;27.40;80.10;;;;;;5060875;28;20439;-74
2022/03/21 12:22:40;;;;;;;5.03;4.07;;;28.30;78.20;;;;;;5078272;28;21097;-74
2022/03/21 12:25:09;;;;;;;4.23;3.80;;;28.70;75.30;;;;;;5089707;28;20461;-74
2022/03/21 12:27:38;;;;;;;3.03;2.83;;;28.30;74.90;;;;;;5076824;28;20811;-75
2022/03/21 12:30:37;;;;;;;9.33;3.27;;;28.20;73.70;;;;;;5066051;28;20796;-74
2022/03/21 12:33:27;;;;;;;4.97;3.30;;;28.00;73.60;;;;;;5068815;28;20493;-75
2022/03/21 12:36:05;;;;;;;3.57;3.27;;;28.90;71.90;;;;;;5062643;28;20483;-74
2022/03/21 12:38:34;;;;;;;4.40;4.00;;;29.10;70.10;;;;;;5068617;28;20457;-75
2022/03/21 12:41:03;;;;;;;4.27;3.70;;;28.40;69.50;;;;;;5069997;28;20471;-74
2022/03/21 12:43:32;;;;;;;4.57;3.43;;;28.60;69.70;;;;;;5068032;28;20443;-74
2022/03/21 12:46:10;;;;;;;4.33;3.93;;;28.90;68.80;;;;;;5068639;28;20425;-72
2022/03/21 12:48:41;;;;;;;4.20;3.80;;;29.70;68.20;;;;;;5068259;28;20442;-73
2022/03/21 12:51:09;;;;;;;4.53;3.20;;;29.90;66.60;;;;;;5069205;28;20432;-75
2022/03/21 12:53:37;;;;;;;3.90;3.50;;;29.30;66.20;;;;;;5067323;28;20426;-74
2022/03/21 12:56:07;;;;;;;4.67;3.70;;;28.90;65.80;;;;;;5069897;28;20429;-76
2022/03/21 12:58:35;;;;;;;3.93;3.10;;;28.60;65.90;;;;;;5064554;28;20477;-75
2022/03/21 13:01:03;;;;;;;3.63;3.33;;;28.20;65.90;;;;;;5072642;28;20430;-73
2022/03/21 13:03:30;;;;;;;3.77;3.47;;;28.10;65.60;;;;;;5068180;28;20514;-74
2022/03/21 13:11:46;;;;;;;6.27;4.30;;;27.30;65.10;;;;;;5033887;28;20419;-70
2022/03/21 13:14:14;;;;;;;4.37;3.97;;;26.70;66.80;;;;;;5011670;28;20493;-66
2022/03/21 13:16:49;;;;;;;3.80;3.50;;;26.90;67.00;;;;;;5041731;28;20807;-66
2022/03/21 13:19:19;;;;;;;3.90;3.60;;;27.40;66.50;;;;;;5067345;28;21078;-66
2022/03/21 13:21:48;;;;;;;4.40;3.60;;;28.00;66.20;;;;;;5066634;28;20422;-65
2022/03/21 13:24:14;;;;;;;4.07;3.67;;;28.60;65.30;;;;;;5063243;28;20571;-65
2022/03/21 13:26:44;;;;;;;4.07;3.67;;;29.00;63.90;;;;;;5068132;28;20471;-68